Terminal Aerodrome Forecast
Issued by NWS Sterling, VA

Current Version | Previous Version | Graphics & Text | Print | Product List | Glossary On
Versions: 1 2 3 4 5 6 7 8 9 10 11 12 13 14 15 16 17 18 19 20 21 22
000
FTUS41 KLWX 170849 AAA
TAFDCA
TAF AMD
KDCA 170849Z 1709/1806 VRB03KT P6SM VCSH OVC020
     FM171300 VRB03KT 3SM -SHRA BR OVC015
     FM171800 17004KT 6SM -SHRA BR OVC015
     FM172100 19007KT P6SM BKN020
     FM180000 19006KT P6SM BKN008
     FM180300 21007KT P6SM BKN008=

USA.gov is the U.S. government's official web portal to all federal, state and local government web resources and services.